Time;durP1;ratioP1;P1;durP2;ratioP2;P2;SDS_P1;SDS_P2;PMS_P1;PMS_P2;Temp;Humidity;BMP_temperature;BMP_pressure;BME280_temperature;BME280_humidity;BME280_pressure;Samples;Min_cycle;Max_cycle;Signal;HPM_P1;HPM_P2
2022/01/30 00:02:18;;;;;;;;;;;26.40;99.90;;;;;;5054411;28;20008;-73
2022/01/30 00:04:45;;;;;;;;;;;26.40;99.90;;;;;;5054567;28;19972;-74
2022/01/30 00:07:12;;;;;;;;;;;26.60;99.90;;;;;;5055101;28;19909;-74
2022/01/30 00:09:39;;;;;;;;;;;26.60;99.90;;;;;;5054344;28;19916;-73
2022/01/30 00:12:06;;;;;;;;;;;26.60;99.90;;;;;;5054457;28;19932;-74
2022/01/30 00:14:36;;;;;;;;;;;26.60;99.90;;;;;;5054110;28;19909;-73
2022/01/30 00:17:30;;;;;;;;;;;26.70;99.90;;;;;;5054617;28;19971;-74
2022/01/30 00:19:58;;;;;;;;;;;26.90;99.90;;;;;;5053762;28;20432;-73
2022/01/30 00:24:59;;;;;;;;;;;27.20;99.90;;;;;;5053362;28;19939;-77
2022/01/30 00:27:44;;;;;;;;;;;27.20;99.90;;;;;;5054439;28;19931;-73
2022/01/30 00:30:13;;;;;;;;;;;27.40;99.90;;;;;;5054704;28;19916;-74
2022/01/30 00:32:40;;;;;;;;;;;27.40;99.90;;;;;;5054630;28;19913;-76
2022/01/30 00:35:09;;;;;;;;;;;27.50;99.90;;;;;;5054570;28;19909;-74
2022/01/30 00:37:41;;;;;;;;;;;27.50;99.90;;;;;;5054420;28;19913;-73
2022/01/30 00:40:08;;;;;;;;;;;27.30;99.90;;;;;;5054069;28;19915;-73
2022/01/30 00:42:35;;;;;;;;;;;27.20;99.90;;;;;;5054223;28;19909;-76
2022/01/30 00:45:02;;;;;;;;;;;27.30;99.90;;;;;;5054248;28;20394;-76
2022/01/30 00:47:29;;;;;;;;;;;27.30;99.90;;;;;;5054122;28;19951;-74
2022/01/30 00:49:56;;;;;;;;;;;27.30;99.90;;;;;;5054097;28;19908;-73
2022/01/30 00:52:23;;;;;;;;;;;27.50;99.90;;;;;;5053538;28;19995;-76
2022/01/30 00:54:50;;;;;;;;;;;27.50;99.90;;;;;;5054237;28;20004;-73
2022/01/30 00:57:16;;;;;;;;;;;27.60;99.90;;;;;;5054186;28;20319;-73
2022/01/30 00:59:43;;;;;;;;;;;27.80;99.90;;;;;;5054193;28;19916;-73
2022/01/30 01:02:10;;;;;;;;;;;27.80;99.90;;;;;;5053910;28;19908;-76
2022/01/30 01:04:36;;;;;;;;;;;27.90;99.90;;;;;;5053783;28;20371;-76
2022/01/30 01:07:03;;;;;;;;;;;28.00;99.90;;;;;;5054043;28;19987;-75
2022/01/30 01:09:36;;;;;;;;;;;28.20;99.90;;;;;;5054054;28;19909;-75
2022/01/30 01:12:34;;;;;;;;;;;28.50;99.90;;;;;;5053813;28;19916;-75
2022/01/30 01:26:08;;;;;;;;;;;28.20;99.90;;;;;;5031110;28;19921;-75
2022/01/30 01:28:35;;;;;;;;;;;28.20;99.90;;;;;;5049041;28;19996;-75
2022/01/30 01:31:02;;;;;;;;;;;28.50;99.90;;;;;;5053497;28;19956;-73
2022/01/30 01:33:45;;;;;;;;;;;28.60;99.90;;;;;;5053462;28;20283;-73
2022/01/30 01:36:12;;;;;;;;;;;28.70;99.90;;;;;;5053470;28;19956;-74
2022/01/30 01:38:39;;;;;;;;;;;29.10;99.90;;;;;;5053223;28;19913;-75
2022/01/30 01:41:05;;;;;;;;;;;28.90;99.90;;;;;;5053177;28;20337;-74
2022/01/30 01:43:34;;;;;;;;;;;29.40;99.90;;;;;;5053078;28;20293;-73
2022/01/30 01:46:01;;;;;;;;;;;29.60;99.90;;;;;;5053238;28;19920;-77
2022/01/30 01:48:33;;;;;;;;;;;29.20;99.90;;;;;;5053254;28;19908;-74
2022/01/30 01:51:15;;;;;;;;;;;28.60;99.90;;;;;;5053326;28;20268;-76
2022/01/30 01:53:42;;;;;;;;;;;28.20;99.90;;;;;;5053160;28;19908;-76
2022/01/30 01:56:08;;;;;;;;;;;28.20;99.90;;;;;;5052702;28;20500;-73
2022/01/30 01:58:35;;;;;;;;;;;28.40;99.90;;;;;;5052691;28;19963;-77
2022/01/30 02:01:03;;;;;;;;;;;28.70;99.90;;;;;;5052910;28;19916;-75
2022/01/30 02:03:29;;;;;;;;;;;28.90;99.90;;;;;;5052524;28;20002;-75
2022/01/30 02:06:00;;;;;;;;;;;28.70;99.90;;;;;;5052611;28;20039;-75
2022/01/30 02:11:10;;;;;;;;;;;28.50;99.90;;;;;;5052818;28;19999;-73
2022/01/30 02:24:50;;;;;;;;;;;28.30;99.90;;;;;;5052688;28;20283;-75
2022/01/30 02:27:20;;;;;;;;;;;28.00;99.90;;;;;;5052673;28;19908;-75
2022/01/30 02:29:47;;;;;;;;;;;27.80;99.90;;;;;;5052170;28;20319;-73
2022/01/30 02:32:14;;;;;;;;;;;27.80;99.90;;;;;;5052884;28;19908;-75
2022/01/30 02:34:40;;;;;;;;;;;27.80;99.90;;;;;;5052515;28;19916;-75
2022/01/30 02:37:07;;;;;;;;;;;27.80;99.90;;;;;;5052544;28;20338;-76
2022/01/30 02:39:34;;;;;;;;;;;27.70;99.90;;;;;;5052251;28;19931;-75
2022/01/30 02:42:01;;;;;;;;;;;27.60;99.90;;;;;;5052153;28;19978;-75
2022/01/30 02:44:52;;;;;;;;;;;27.70;99.90;;;;;;5051896;28;20019;-75
2022/01/30 02:52:37;;;;;;;;;;;27.90;99.90;;;;;;5052358;28;19913;-74
2022/01/30 02:55:04;;;;;;;;;;;27.80;99.90;;;;;;5052272;28;19924;-76
2022/01/30 02:57:31;;;;;;;;;;;27.80;99.90;;;;;;5052140;28;20399;-75
2022/01/30 02:59:58;;;;;;;;;;;27.80;99.90;;;;;;5052036;28;20363;-76
2022/01/30 03:02:24;;;;;;;;;;;27.80;99.90;;;;;;5051965;28;19915;-75
2022/01/30 03:04:51;;;;;;;;;;;27.80;99.90;;;;;;5052261;28;20062;-74
2022/01/30 03:07:18;;;;;;;;;;;27.80;99.90;;;;;;5052144;28;19909;-73
2022/01/30 03:09:44;;;;;;;;;;;27.80;99.90;;;;;;5052148;28;19913;-74
2022/01/30 03:12:11;;;;;;;;;;;27.80;99.90;;;;;;5051925;28;19909;-75
2022/01/30 03:14:38;;;;;;;;;;;27.70;99.90;;;;;;5052171;28;20383;-76
2022/01/30 03:17:04;;;;;;;;;;;27.70;99.90;;;;;;5051701;28;19909;-76
2022/01/30 03:19:31;;;;;;;;;;;27.70;99.90;;;;;;5051952;28;19916;-74
2022/01/30 03:21:58;;;;;;;;;;;27.50;99.90;;;;;;5051594;28;20371;-76
2022/01/30 03:24:25;;;;;;;;;;;27.40;99.90;;;;;;5083372;28;19975;-77
2022/01/30 03:26:51;;;;;;;;;;;27.50;99.90;;;;;;5051548;28;19994;-74
2022/01/30 03:29:18;;;;;;;;;;;27.60;99.90;;;;;;5052161;28;19916;-75
2022/01/30 03:31:46;;;;;;;;;;;27.60;99.90;;;;;;5051857;28;19909;-75
2022/01/30 03:34:13;;;;;;;;;;;27.50;99.90;;;;;;5051746;28;19963;-77
2022/01/30 03:36:40;;;;;;;;;;;27.40;99.90;;;;;;5051699;28;20358;-74
2022/01/30 03:39:06;;;;;;;;;;;27.50;99.90;;;;;;5051813;28;20280;-76
2022/01/30 03:41:33;;;;;;;;;;;27.30;99.90;;;;;;5051836;28;19978;-76
2022/01/30 03:44:00;;;;;;;;;;;27.20;99.90;;;;;;5051382;28;19946;-73
2022/01/30 03:46:27;;;;;;;;;;;27.20;99.90;;;;;;5051811;28;20004;-74
2022/01/30 03:48:53;;;;;;;;;;;27.20;99.90;;;;;;5051766;28;19909;-76
2022/01/30 03:51:20;;;;;;;;;;;27.30;99.90;;;;;;5051825;28;19912;-76
2022/01/30 03:53:47;;;;;;;;;;;27.40;99.90;;;;;;5051487;28;19939;-73
2022/01/30 03:56:13;;;;;;;;;;;27.30;99.90;;;;;;5051717;28;19916;-74
2022/01/30 03:58:40;;;;;;;;;;;27.30;99.90;;;;;;5052046;28;19915;-74
2022/01/30 04:01:07;;;;;;;;;;;27.20;99.90;;;;;;5055237;28;19909;-75
2022/01/30 04:03:36;;;;;;;;;;;27.20;99.90;;;;;;5055127;28;19917;-76
2022/01/30 04:06:04;;;;;;;;;;;27.10;99.90;;;;;;5055018;28;20325;-74
2022/01/30 04:08:31;;;;;;;;;;;27.10;99.90;;;;;;5055027;28;19911;-74
2022/01/30 04:10:57;;;;;;;;;;;27.00;99.90;;;;;;5055303;28;19909;-77
2022/01/30 04:13:24;;;;;;;;;;;27.10;99.90;;;;;;5055247;28;19964;-77
2022/01/30 04:15:51;;;;;;;;;;;27.20;99.90;;;;;;5054746;28;20303;-76
2022/01/30 04:18:17;;;;;;;;;;;27.20;99.90;;;;;;5054815;28;19916;-76
2022/01/30 04:20:44;;;;;;;;;;;27.40;99.90;;;;;;5054684;28;19958;-77
2022/01/30 04:23:11;;;;;;;;;;;27.50;99.90;;;;;;5054758;28;19916;-77
2022/01/30 04:25:37;;;;;;;;;;;27.50;99.90;;;;;;5054917;28;19913;-74
2022/01/30 04:28:04;;;;;;;;;;;27.40;99.90;;;;;;5054605;28;19948;-75
2022/01/30 04:30:31;;;;;;;;;;;27.40;99.90;;;;;;5066663;28;19993;-73
2022/01/30 04:32:58;;;;;;;;;;;27.50;99.90;;;;;;5073700;28;20386;-75
2022/01/30 04:35:28;;;;;;;;;;;27.40;99.90;;;;;;5062273;28;19909;-73
2022/01/30 04:55:26;;;;;;;;;;;27.60;99.90;;;;;;5053924;28;19935;-72
2022/01/30 05:02:51;;;;;;;;;;;27.50;99.90;;;;;;5073351;28;19913;-73
2022/01/30 05:07:46;;;;;;;;;;;27.20;99.90;;;;;;5073962;28;19909;-76
2022/01/30 05:10:13;;;;;;;;;;;27.10;99.90;;;;;;5072699;28;19955;-74
2022/01/30 05:12:48;;;;;;;;;;;26.90;99.90;;;;;;5073371;28;19970;-76
2022/01/30 05:15:17;;;;;;;;;;;27.00;99.90;;;;;;5073517;28;20350;-76
2022/01/30 05:17:44;;;;;;;;;;;27.00;99.90;;;;;;5073312;28;20015;-73
2022/01/30 05:20:11;;;;;;;;;;;27.00;99.90;;;;;;5073647;28;20351;-73
2022/01/30 05:22:38;;;;;;;;;;;26.90;99.90;;;;;;5073174;28;19920;-76
2022/01/30 05:25:05;;;;;;;;;;;27.00;99.90;;;;;;5072693;28;19962;-78
2022/01/30 05:27:32;;;;;;;;;;;27.10;99.90;;;;;;5072909;28;19936;-74
2022/01/30 05:29:59;;;;;;;;;;;27.10;99.90;;;;;;5073191;28;19912;-72
2022/01/30 05:32:25;;;;;;;;;;;26.90;99.90;;;;;;5072415;28;20374;-77
2022/01/30 05:34:52;;;;;;;;;;;26.90;99.90;;;;;;5073030;28;19950;-77
2022/01/30 05:37:19;;;;;;;;;;;27.00;99.90;;;;;;5073216;28;20472;-72
2022/01/30 05:39:46;;;;;;;;;;;26.90;99.90;;;;;;5073172;28;19962;-74
2022/01/30 05:42:13;;;;;;;;;;;26.80;99.90;;;;;;5073080;28;19962;-73
2022/01/30 05:47:14;;;;;;;;;;;26.90;99.90;;;;;;5073174;28;20259;-73
2022/01/30 05:49:41;;;;;;;;;;;26.90;99.90;;;;;;5073186;28;19909;-76
2022/01/30 05:52:08;;;;;;;;;;;26.70;99.90;;;;;;5070126;28;19909;-73
2022/01/30 05:54:35;;;;;;;;;;;26.80;99.90;;;;;;5053338;28;20031;-76
2022/01/30 05:57:02;;;;;;;;;;;26.70;99.90;;;;;;5052940;28;19931;-77
2022/01/30 05:59:28;;;;;;;;;;;26.60;99.90;;;;;;5052821;28;20003;-75
2022/01/30 06:01:55;;;;;;;;;;;26.70;99.90;;;;;;5051917;28;19916;-76
2022/01/30 06:04:22;;;;;;;;;;;26.70;99.90;;;;;;5051911;28;19960;-78
2022/01/30 06:06:51;;;;;;;;;;;26.60;99.90;;;;;;5052728;28;20268;-76
2022/01/30 06:11:49;;;;;;;;;;;26.60;99.90;;;;;;5052582;28;20322;-76
2022/01/30 06:14:17;;;;;;;;;;;26.70;99.90;;;;;;5052520;28;19909;-72
2022/01/30 06:16:43;;;;;;;;;;;26.70;99.90;;;;;;5052441;28;19920;-73
2022/01/30 06:19:10;;;;;;;;;;;26.50;99.90;;;;;;5051863;28;19909;-73
2022/01/30 06:21:37;;;;;;;;;;;26.40;99.90;;;;;;5051341;28;19924;-74
2022/01/30 06:24:04;;;;;;;;;;;26.50;99.90;;;;;;5052100;28;19974;-77
2022/01/30 06:26:30;;;;;;;;;;;26.50;99.90;;;;;;5052311;28;19916;-76
2022/01/30 06:28:57;;;;;;;;;;;26.50;99.90;;;;;;5052328;28;19919;-77
2022/01/30 06:31:24;;;;;;;;;;;26.50;99.90;;;;;;5051765;28;19915;-76
2022/01/30 06:33:50;;;;;;;;;;;26.50;99.90;;;;;;5083492;28;19919;-76
2022/01/30 06:36:17;;;;;;;;;;;26.50;99.90;;;;;;5052177;28;19916;-73
2022/01/30 06:38:44;;;;;;;;;;;26.20;99.90;;;;;;5052124;28;19909;-74
2022/01/30 06:41:10;;;;;;;;;;;26.20;99.90;;;;;;5052167;28;19920;-76
2022/01/30 06:43:37;;;;;;;;;;;26.20;99.90;;;;;;5052139;28;19913;-75
2022/01/30 06:46:04;;;;;;;;;;;26.20;99.90;;;;;;5051521;28;19920;-76
2022/01/30 06:48:31;;;;;;;;;;;26.10;99.90;;;;;;5051401;28;19913;-74
2022/01/30 06:50:58;;;;;;;;;;;26.00;99.90;;;;;;5051813;28;19967;-75
2022/01/30 06:53:25;;;;;;;;;;;26.00;99.90;;;;;;5052090;28;20007;-76
2022/01/30 06:55:51;;;;;;;;;;;25.80;99.90;;;;;;5051844;28;19909;-76
2022/01/30 06:58:18;;;;;;;;;;;25.80;99.90;;;;;;5052052;28;20299;-77
2022/01/30 07:00:45;;;;;;;;;;;25.70;99.90;;;;;;5052387;28;19909;-76
2022/01/30 07:03:11;;;;;;;;;;;25.60;99.90;;;;;;5051141;28;19916;-77
2022/01/30 07:05:38;;;;;;;;;;;25.50;99.90;;;;;;5083866;28;19924;-72
2022/01/30 07:08:05;;;;;;;;;;;25.40;99.90;;;;;;5051889;28;19923;-76
2022/01/30 07:10:31;;;;;;;;;;;25.40;99.90;;;;;;5051949;28;20271;-74
2022/01/30 07:12:58;;;;;;;;;;;25.50;99.90;;;;;;5051636;28;20000;-75
2022/01/30 07:15:25;;;;;;;;;;;25.60;99.90;;;;;;5051851;28;19963;-76
2022/01/30 07:17:51;;;;;;;;;;;25.60;99.90;;;;;;5051723;28;19947;-75
2022/01/30 07:20:19;;;;;;;;;;;25.60;99.90;;;;;;5051631;28;19912;-75
2022/01/30 07:22:45;;;;;;;;;;;25.70;99.90;;;;;;5051238;28;20268;-76
2022/01/30 07:25:12;;;;;;;;;;;25.60;99.90;;;;;;5051532;28;19917;-77
2022/01/30 07:27:39;;;;;;;;;;;25.60;99.90;;;;;;5051838;28;19909;-73
2022/01/30 07:30:06;;;;;;;;;;;25.70;99.90;;;;;;5051563;28;19978;-77
2022/01/30 07:32:32;;;;;;;;;;;25.70;99.90;;;;;;5051328;28;19916;-76
2022/01/30 07:34:59;;;;;;;;;;;25.70;99.90;;;;;;5055265;28;19916;-76
2022/01/30 07:37:26;;;;;;;;;;;25.70;99.90;;;;;;5055730;28;19909;-76
2022/01/30 07:39:53;;;;;;;;;;;25.70;99.90;;;;;;5055113;28;20394;-75
2022/01/30 07:42:21;;;;;;;;;;;25.70;99.90;;;;;;5055297;28;20266;-72
2022/01/30 07:44:47;;;;;;;;;;;25.60;99.90;;;;;;5055022;28;19917;-75
2022/01/30 07:47:14;;;;;;;;;;;25.50;99.90;;;;;;5055175;28;20007;-73
2022/01/30 07:49:40;;;;;;;;;;;25.40;99.90;;;;;;5055357;28;19955;-75
2022/01/30 07:52:08;;;;;;;;;;;25.40;99.90;;;;;;5054941;28;19909;-76
2022/01/30 07:54:35;;;;;;;;;;;25.40;99.90;;;;;;5055016;28;19909;-77
2022/01/30 07:57:02;;;;;;;;;;;25.40;99.90;;;;;;5059637;28;19919;-77
2022/01/30 07:59:29;;;;;;;;;;;25.40;99.90;;;;;;5063969;28;19952;-77
2022/01/30 08:01:56;;;;;;;;;;;25.40;99.90;;;;;;5054345;28;19917;-78
2022/01/30 08:04:23;;;;;;;;;;;25.30;99.90;;;;;;5054746;28;20359;-73
2022/01/30 08:06:50;;;;;;;;;;;25.40;99.90;;;;;;5054720;28;19913;-76
2022/01/30 08:09:16;;;;;;;;;;;25.30;99.90;;;;;;5055067;28;19916;-76
2022/01/30 08:11:43;;;;;;;;;;;25.30;99.90;;;;;;5054835;28;19920;-78
2022/01/30 08:14:10;;;;;;;;;;;25.30;99.90;;;;;;5054637;28;19912;-76
2022/01/30 08:16:36;;;;;;;;;;;25.20;99.90;;;;;;5054473;28;19908;-74
2022/01/30 08:19:03;;;;;;;;;;;25.20;99.90;;;;;;5054819;28;19916;-73
2022/01/30 08:21:30;;;;;;;;;;;25.20;99.90;;;;;;5054087;28;20365;-74
2022/01/30 08:23:56;;;;;;;;;;;25.20;99.90;;;;;;5054358;28;20058;-73
2022/01/30 08:26:23;;;;;;;;;;;25.10;99.90;;;;;;5054349;28;20360;-73
2022/01/30 08:28:50;;;;;;;;;;;25.10;99.90;;;;;;5054121;28;20405;-74
2022/01/30 08:31:16;;;;;;;;;;;25.10;99.90;;;;;;5054059;28;19924;-73
2022/01/30 08:33:43;;;;;;;;;;;25.00;99.90;;;;;;5054217;28;20310;-77
2022/01/30 08:36:10;;;;;;;;;;;25.00;99.90;;;;;;5054112;28;19917;-75
2022/01/30 08:38:37;;;;;;;;;;;24.90;99.90;;;;;;5054487;28;19927;-75
2022/01/30 08:41:04;;;;;;;;;;;24.90;99.90;;;;;;5054408;28;20035;-72
2022/01/30 08:43:31;;;;;;;;;;;24.80;99.90;;;;;;5053855;28;19917;-73
2022/01/30 08:45:59;;;;;;;;;;;24.80;99.90;;;;;;5053143;28;20272;-74
2022/01/30 08:48:27;;;;;;;;;;;24.80;99.90;;;;;;5054214;28;19978;-72
2022/01/30 08:50:54;;;;;;;;;;;24.80;99.90;;;;;;5054405;28;19915;-75
2022/01/30 08:53:21;;;;;;;;;;;24.80;99.90;;;;;;5054315;28;20012;-75
2022/01/30 08:55:47;;;;;;;;;;;24.80;99.90;;;;;;5053992;28;20418;-74
2022/01/30 08:58:14;;;;;;;;;;;24.70;99.90;;;;;;5053695;28;19915;-75
2022/01/30 09:00:43;;;;;;;;;;;24.80;99.90;;;;;;5053452;28;19909;-73
2022/01/30 09:03:10;;;;;;;;;;;24.70;99.90;;;;;;5053827;28;19959;-75
2022/01/30 09:05:37;;;;;;;;;;;24.70;99.90;;;;;;5054000;28;19917;-76
2022/01/30 09:08:04;;;;;;;;;;;24.70;99.90;;;;;;5053597;28;20347;-74
2022/01/30 09:10:32;;;;;;;;;;;24.60;99.90;;;;;;5053981;28;19915;-76
2022/01/30 09:12:58;;;;;;;;;;;24.60;99.90;;;;;;5053451;28;19913;-77
2022/01/30 09:15:25;;;;;;;;;;;24.60;99.90;;;;;;5053656;28;19945;-75
2022/01/30 09:17:52;;;;;;;;;;;24.60;99.90;;;;;;5053613;28;20276;-71
2022/01/30 09:20:19;;;;;;;;;;;24.60;99.90;;;;;;5053623;28;20283;-76
2022/01/30 09:22:46;;;;;;;;;;;24.50;99.90;;;;;;5053682;28;19928;-77
2022/01/30 09:25:13;;;;;;;;;;;24.50;99.90;;;;;;5053621;28;19917;-78
2022/01/30 09:27:40;;;;;;;;;;;24.50;99.90;;;;;;5053050;28;19913;-76
2022/01/30 09:30:07;;;;;;;;;;;24.50;99.90;;;;;;5053250;28;19909;-76
2022/01/30 09:32:34;;;;;;;;;;;24.50;99.90;;;;;;5053446;28;19908;-76
2022/01/30 09:35:01;;;;;;;;;;;24.50;99.90;;;;;;5053516;28;19909;-78
2022/01/30 09:37:28;;;;;;;;;;;24.50;99.90;;;;;;5053601;28;19916;-78
2022/01/30 09:39:54;;;;;;;;;;;24.50;99.90;;;;;;5053119;28;19909;-78
2022/01/30 09:42:24;;;;;;;;;;;24.50;99.90;;;;;;5052810;28;19948;-77
2022/01/30 09:44:51;;;;;;;;;;;24.50;99.90;;;;;;5053305;28;20306;-75
2022/01/30 09:47:18;;;;;;;;;;;24.50;99.90;;;;;;5053231;28;20391;-77
2022/01/30 09:49:49;;;;;;;;;;;24.60;99.90;;;;;;5053104;28;19985;-78
2022/01/30 09:52:16;;;;;;;;;;;24.60;99.90;;;;;;5052960;28;19940;-76
2022/01/30 09:54:44;;;;;;;;;;;24.60;99.90;;;;;;5053151;28;19920;-79
2022/01/30 09:57:10;;;;;;;;;;;24.50;99.90;;;;;;5052936;28;19999;-78
2022/01/30 09:59:37;;;;;;;;;;;24.50;99.90;;;;;;5053020;28;19916;-75
2022/01/30 10:02:07;;;;;;;;;;;24.50;99.90;;;;;;5052691;28;19952;-74
2022/01/30 10:04:35;;;;;;;;;;;24.50;99.90;;;;;;5052953;28;19971;-77
2022/01/30 10:07:14;;;;;;;;;;;24.60;99.90;;;;;;5055070;28;19915;-75
2022/01/30 10:09:46;;;;;;;;;;;24.50;99.90;;;;;;5069573;28;20017;-74
2022/01/30 10:12:16;;;;;;;;;;;24.50;99.90;;;;;;5071923;28;19909;-75
2022/01/30 10:15:00;;;;;;;;;;;24.50;99.90;;;;;;5072353;28;20244;-74
2022/01/30 10:17:26;;;;;;;;;;;24.50;99.90;;;;;;5072016;28;19908;-74
2022/01/30 10:20:00;;;;;;;;;;;24.50;99.90;;;;;;5068308;28;19913;-76
2022/01/30 10:22:26;;;;;;;;;;;24.40;99.90;;;;;;5071432;28;19920;-77
2022/01/30 10:24:53;;;;;;;;;;;24.40;99.90;;;;;;5070325;28;19921;-74
2022/01/30 10:27:27;;;;;;;;;;;24.50;99.90;;;;;;5069739;28;20372;-75
2022/01/30 10:29:58;;;;;;;;;;;24.50;99.90;;;;;;5071304;28;19908;-74
2022/01/30 10:32:26;;;;;;;;;;;24.40;99.90;;;;;;5071930;28;19909;-73
2022/01/30 10:35:01;;;;;;;;;;;24.40;99.90;;;;;;5071605;28;19908;-73
2022/01/30 10:37:28;;;;;;;;;;;24.40;99.90;;;;;;5071468;28;19908;-73
2022/01/30 10:39:57;;;;;;;;;;;24.40;99.90;;;;;;5071522;28;19916;-72
2022/01/30 10:42:30;;;;;;;;;;;24.40;99.90;;;;;;5070470;28;19912;-72
2022/01/30 10:44:57;;;;;;;;;;;24.30;99.90;;;;;;5070925;28;19923;-73
2022/01/30 10:47:24;;;;;;;;;;;24.40;99.90;;;;;;5071915;28;19909;-73
2022/01/30 10:49:51;;;;;;;;;;;24.40;99.90;;;;;;5071525;28;19909;-73
2022/01/30 10:52:19;;;;;;;;;;;24.30;99.90;;;;;;5071566;28;19912;-72
2022/01/30 10:54:49;;;;;;;;;;;24.30;99.90;;;;;;5072196;28;19962;-73
2022/01/30 10:57:15;;;;;;;;;;;24.30;99.90;;;;;;5071533;28;19950;-72
2022/01/30 10:59:43;;;;;;;;;;;24.30;99.90;;;;;;5072088;28;19912;-74
2022/01/30 11:02:14;;;;;;;;;;;24.20;99.90;;;;;;5071662;28;20123;-73
2022/01/30 11:04:41;;;;;;;;;;;24.20;99.90;;;;;;5071902;28;19982;-73
2022/01/30 11:07:08;;;;;;;;;;;24.20;99.90;;;;;;5071830;28;20271;-73
2022/01/30 11:09:42;;;;;;;;;;;24.20;99.90;;;;;;5075300;28;19908;-74
2022/01/30 11:12:16;;;;;;;;;;;24.20;99.90;;;;;;5075398;28;20129;-74
2022/01/30 11:17:18;;;;;;;;;;;24.10;99.90;;;;;;5075944;28;19920;-74
2022/01/30 11:19:47;;;;;;;;;;;24.10;99.90;;;;;;5064999;28;19909;-72
2022/01/30 11:22:14;;;;;;;;;;;24.00;99.90;;;;;;5055375;28;19921;-76
2022/01/30 11:24:47;;;;;;;;;;;24.00;99.90;;;;;;5055677;28;20337;-75
2022/01/30 11:27:15;;;;;;;;;;;24.00;99.90;;;;;;5055519;28;19961;-73
2022/01/30 11:29:42;;;;;;;;;;;24.00;99.90;;;;;;5055011;28;19909;-71
2022/01/30 11:32:09;;;;;;;;;;;24.00;99.90;;;;;;5067140;28;19908;-77
2022/01/30 11:34:36;;;;;;;;;;;24.00;99.90;;;;;;5075535;28;19987;-73
2022/01/30 11:37:04;;;;;;;;;;;24.00;99.90;;;;;;5075209;28;19912;-77
2022/01/30 11:39:31;;;;;;;;;;;24.00;99.90;;;;;;5075022;28;19916;-73
2022/01/30 11:42:13;;;;;;;;;;;24.00;99.90;;;;;;5073386;28;19913;-73
2022/01/30 11:44:41;;;;;;;;;;;24.00;99.90;;;;;;5075033;28;19932;-73
2022/01/30 11:47:08;;;;;;;;;;;24.00;99.90;;;;;;5075232;28;20011;-72
2022/01/30 11:49:57;;;;;;;;;;;23.90;99.90;;;;;;5075083;28;20419;-76
2022/01/30 11:52:42;;;;;;;;;;;23.90;99.90;;;;;;5075073;28;19947;-74
2022/01/30 11:55:29;;;;;;;;;;;23.90;99.90;;;;;;5075192;28;19978;-75
2022/01/30 11:57:55;;;;;;;;;;;23.90;99.90;;;;;;5074674;28;19932;-77
2022/01/30 12:00:48;;;;;;;;;;;23.90;99.90;;;;;;5074930;28;20413;-76
2022/01/30 12:03:24;;;;;;;;;;;23.90;99.90;;;;;;5075065;28;19909;-73
2022/01/30 12:05:52;;;;;;;;;;;23.90;99.90;;;;;;5074750;28;19923;-73
2022/01/30 12:08:36;;;;;;;;;;;23.90;99.90;;;;;;5074285;28;19909;-78
2022/01/30 12:11:03;;;;;;;;;;;23.90;99.90;;;;;;5074856;28;20378;-72
2022/01/30 12:13:47;;;;;;;;;;;23.90;99.90;;;;;;5074644;28;19982;-73
2022/01/30 12:16:34;;;;;;;;;;;23.90;99.90;;;;;;5074716;28;19909;-75
2022/01/30 12:19:00;;;;;;;;;;;23.90;99.90;;;;;;5066307;28;20354;-78
2022/01/30 12:21:27;;;;;;;;;;;24.00;99.90;;;;;;5074025;28;20418;-75
2022/01/30 12:23:54;;;;;;;;;;;23.90;99.90;;;;;;5074399;28;19923;-74
2022/01/30 12:26:21;;;;;;;;;;;23.90;99.90;;;;;;5074599;28;20371;-73
2022/01/30 12:28:50;;;;;;;;;;;23.90;99.90;;;;;;5074183;28;19908;-75
2022/01/30 12:31:24;;;;;;;;;;;23.90;99.90;;;;;;5074380;28;19909;-72
2022/01/30 12:34:04;;;;;;;;;;;23.90;99.90;;;;;;5074179;28;19908;-74
2022/01/30 12:36:32;;;;;;;;;;;23.90;99.90;;;;;;5074518;28;19916;-73
2022/01/30 12:39:10;;;;;;;;;;;23.90;99.90;;;;;;5073701;28;19909;-75
2022/01/30 12:41:37;;;;;;;;;;;23.90;99.90;;;;;;5074303;28;19975;-74
2022/01/30 12:44:08;;;;;;;;;;;23.90;99.90;;;;;;5073692;28;19966;-76
2022/01/30 12:46:48;;;;;;;;;;;23.90;99.90;;;;;;5074174;28;19912;-75
2022/01/30 12:49:29;;;;;;;;;;;23.80;99.90;;;;;;5074144;28;20247;-76
2022/01/30 12:51:57;;;;;;;;;;;23.90;99.90;;;;;;5074141;28;19938;-76
2022/01/30 12:54:24;;;;;;;;;;;23.80;99.90;;;;;;5074033;28;20309;-75
2022/01/30 12:56:52;;;;;;;;;;;23.80;99.90;;;;;;5074028;28;19908;-73
2022/01/30 12:59:19;;;;;;;;;;;23.80;99.90;;;;;;5073776;28;19908;-73
2022/01/30 13:01:48;;;;;;;;;;;23.80;99.90;;;;;;5073996;28;19917;-74
2022/01/30 13:04:16;;;;;;;;;;;23.80;99.90;;;;;;5073886;28;19917;-75
2022/01/30 13:06:44;;;;;;;;;;;23.80;99.90;;;;;;5089459;28;19916;-75
2022/01/30 13:09:11;;;;;;;;;;;23.70;99.90;;;;;;5073162;28;19908;-77
2022/01/30 13:11:38;;;;;;;;;;;23.70;99.90;;;;;;5073677;28;19913;-74
2022/01/30 13:14:08;;;;;;;;;;;23.70;99.90;;;;;;5073690;28;20013;-76
2022/01/30 13:16:42;;;;;;;;;;;23.80;99.90;;;;;;5073751;28;20281;-77
2022/01/30 13:19:11;;;;;;;;;;;23.60;99.90;;;;;;5073434;28;19908;-73
2022/01/30 13:21:38;;;;;;;;;;;23.70;99.90;;;;;;5073467;28;19924;-73
2022/01/30 13:24:06;;;;;;;;;;;23.60;99.90;;;;;;5073374;28;19912;-76
2022/01/30 13:26:34;;;;;;;;;;;23.60;99.90;;;;;;5073521;28;19952;-75
2022/01/30 13:29:02;;;;;;;;;;;23.70;99.90;;;;;;5073086;28;20367;-73
2022/01/30 13:31:32;;;;;;;;;;;23.60;99.90;;;;;;5072767;28;19909;-76
2022/01/30 13:34:15;;;;;;;;;;;23.70;99.90;;;;;;5073006;28;20312;-73
2022/01/30 13:36:43;;;;;;;;;;;23.60;99.90;;;;;;5073302;28;19908;-73
2022/01/30 13:39:11;;;;;;;;;;;23.60;99.90;;;;;;5072892;28;20329;-73
2022/01/30 13:42:00;;;;;;;;;;;23.60;99.90;;;;;;5073132;28;19912;-74
2022/01/30 13:44:37;;;;;;;;;;;23.60;99.90;;;;;;5055038;28;19912;-74
2022/01/30 13:47:05;;;;;;;;;;;23.60;99.90;;;;;;5072888;28;20359;-73
2022/01/30 13:49:42;;;;;;;;;;;23.50;99.90;;;;;;5072934;28;19917;-76
2022/01/30 13:52:10;;;;;;;;;;;23.60;99.90;;;;;;5072952;28;19954;-72
2022/01/30 13:54:39;;;;;;;;;;;23.60;99.90;;;;;;5073009;28;19999;-72
2022/01/30 13:57:07;;;;;;;;;;;23.50;99.90;;;;;;5072693;28;19919;-73
2022/01/30 13:59:34;;;;;;;;;;;23.40;99.90;;;;;;5072107;28;19915;-73
2022/01/30 14:02:04;;;;;;;;;;;23.40;99.90;;;;;;5072678;28;19909;-75
2022/01/30 14:04:32;;;;;;;;;;;23.40;99.90;;;;;;5072873;28;19970;-74
2022/01/30 14:07:01;;;;;;;;;;;23.40;99.90;;;;;;5072813;28;19952;-74
2022/01/30 14:09:47;;;;;;;;;;;23.40;99.90;;;;;;5072739;28;19947;-72
2022/01/30 14:12:15;;;;;;;;;;;23.40;99.90;;;;;;5072933;28;20367;-74
2022/01/30 14:14:41;;;;;;;;;;;23.40;99.90;;;;;;5072651;28;19909;-74
2022/01/30 14:17:11;;;;;;;;;;;23.40;99.90;;;;;;5072727;28;19947;-76
2022/01/30 14:19:48;;;;;;;;;;;23.30;99.90;;;;;;5072678;28;20004;-73
2022/01/30 14:22:27;;;;;;;;;;;23.30;99.90;;;;;;5072491;28;19999;-77
2022/01/30 14:24:55;;;;;;;;;;;23.40;99.90;;;;;;5072565;28;20260;-75
2022/01/30 14:27:23;;;;;;;;;;;23.40;99.90;;;;;;5072597;28;20279;-75
2022/01/30 14:29:58;;;;;;;;;;;23.40;99.90;;;;;;5072302;28;20374;-73
2022/01/30 14:32:33;;;;;;;;;;;23.40;99.90;;;;;;5072026;28;19940;-76
2022/01/30 14:35:01;;;;;;;;;;;23.30;99.90;;;;;;5072492;28;20007;-73
2022/01/30 14:37:28;;;;;;;;;;;23.20;99.90;;;;;;5072540;28;19951;-72
2022/01/30 14:39:56;;;;;;;;;;;23.10;99.90;;;;;;5072224;28;19909;-77
2022/01/30 14:42:23;;;;;;;;;;;23.00;99.90;;;;;;5072019;28;19916;-74
2022/01/30 14:44:49;;;;;;;;;;;23.10;99.90;;;;;;5072334;28;19942;-76
2022/01/30 14:47:16;;;;;;;;;;;23.20;99.90;;;;;;5072424;28;19909;-77
2022/01/30 14:49:44;;;;;;;;;;;23.20;99.90;;;;;;5072367;28;19913;-77
2022/01/30 14:52:10;;;;;;;;;;;23.30;99.90;;;;;;5072101;28;19916;-77
2022/01/30 14:54:37;;;;;;;;;;;23.30;99.90;;;;;;5072258;28;19909;-77
2022/01/30 14:57:04;;;;;;;;;;;23.30;99.90;;;;;;5072146;28;19916;-76
2022/01/30 14:59:31;;;;;;;;;;;23.30;99.90;;;;;;5072090;28;19908;-74
2022/01/30 15:01:57;;;;;;;;;;;23.30;99.90;;;;;;5071905;28;19909;-74
2022/01/30 15:04:24;;;;;;;;;;;23.20;99.90;;;;;;5072335;28;20223;-77
2022/01/30 15:06:51;;;;;;;;;;;23.20;99.90;;;;;;5072212;28;19909;-77
2022/01/30 15:09:18;;;;;;;;;;;23.10;99.90;;;;;;5072210;28;19958;-77
2022/01/30 15:11:45;;;;;;;;;;;23.10;99.90;;;;;;5072031;28;20407;-77
2022/01/30 15:14:12;;;;;;;;;;;23.20;99.90;;;;;;5071965;28;20001;-75
2022/01/30 15:19:09;;;;;;;;;;;23.10;99.90;;;;;;5072040;28;19909;-75
2022/01/30 15:21:36;;;;;;;;;;;23.10;99.90;;;;;;5071785;28;20283;-76
2022/01/30 15:24:04;;;;;;;;;;;23.10;99.90;;;;;;5071828;28;19920;-76
2022/01/30 15:26:31;;;;;;;;;;;23.10;99.90;;;;;;5071857;28;19916;-75
2022/01/30 15:28:58;;;;;;;;;;;23.00;99.90;;;;;;5071965;28;19995;-75
2022/01/30 15:31:25;;;;;;;;;;;23.00;99.90;;;;;;5071953;28;19915;-75
2022/01/30 15:33:51;;;;;;;;;;;23.00;99.90;;;;;;5071622;28;19923;-74